Time;durP1;ratioP1;P1;durP2;ratioP2;P2;SDS_P1;SDS_P2;PMS_P1;PMS_P2;Temp;Humidity;BMP_temperature;BMP_pressure;BME280_temperature;BME280_humidity;BME280_pressure;Samples;Min_cycle;Max_cycle;Signal;HPM_P1;HPM_P2
2022/10/24 00:00:00;;;;;;;2.87;1.40;;;19.30;98.00;;;;;;5032791;28;20458;-68
2022/10/24 00:02:29;;;;;;;2.80;1.63;;;19.30;98.00;;;;;;5032543;28;21001;-69
2022/10/24 00:04:56;;;;;;;2.27;1.40;;;19.30;98.00;;;;;;5032526;28;20466;-69
2022/10/24 00:07:23;;;;;;;1.70;1.40;;;19.30;98.00;;;;;;5032422;28;20958;-69
2022/10/24 00:09:50;;;;;;;2.03;1.30;;;19.20;98.00;;;;;;5032502;28;20525;-69
2022/10/24 00:12:18;;;;;;;2.20;1.47;;;19.20;98.00;;;;;;5032376;28;20463;-69
2022/10/24 00:14:46;;;;;;;2.70;1.70;;;19.20;98.00;;;;;;5032452;28;20463;-68
2022/10/24 00:17:13;;;;;;;2.90;1.60;;;19.10;98.00;;;;;;5032238;28;20462;-68
2022/10/24 00:19:41;;;;;;;1.50;1.10;;;19.10;98.00;;;;;;5014859;28;20478;-68
2022/10/24 00:22:08;;;;;;;2.77;1.40;;;19.10;98.00;;;;;;5031948;28;20521;-68
2022/10/24 00:24:35;;;;;;;2.33;1.67;;;19.10;98.00;;;;;;5032069;28;20450;-68
2022/10/24 00:27:03;;;;;;;1.53;1.33;;;19.10;98.00;;;;;;5031971;28;20458;-68
2022/10/24 00:29:30;;;;;;;12.83;1.57;;;18.90;98.00;;;;;;5031955;28;20458;-69
2022/10/24 00:31:57;;;;;;;1.80;1.20;;;18.90;98.00;;;;;;5031845;28;20463;-68
2022/10/24 00:34:24;;;;;;;1.30;1.23;;;18.80;98.00;;;;;;5031772;28;20458;-68
2022/10/24 00:36:52;;;;;;;1.70;1.20;;;18.70;98.00;;;;;;5031807;28;20984;-68
2022/10/24 00:39:19;;;;;;;2.47;1.37;;;18.60;98.00;;;;;;5031735;28;20455;-68
2022/10/24 00:41:46;;;;;;;4.20;2.00;;;18.60;98.00;;;;;;5031676;28;20709;-68
2022/10/24 00:44:16;;;;;;;1.30;1.20;;;18.50;98.00;;;;;;5031726;28;20489;-69
2022/10/24 00:46:48;;;;;;;2.63;1.30;;;18.40;98.00;;;;;;5031581;28;20912;-68
2022/10/24 00:49:19;;;;;;;1.80;1.70;;;18.40;98.00;;;;;;5031717;28;20822;-68
2022/10/24 00:51:50;;;;;;;2.53;1.47;;;18.40;98.00;;;;;;5031552;28;20968;-68
2022/10/24 00:54:20;;;;;;;1.50;1.20;;;18.30;98.00;;;;;;5031561;28;20953;-68
2022/10/24 00:56:55;;;;;;;1.40;1.20;;;18.30;98.00;;;;;;5014284;28;20454;-68
2022/10/24 00:59:23;;;;;;;2.47;1.57;;;18.30;98.00;;;;;;5031820;28;20455;-68
2022/10/24 01:01:50;;;;;;;1.50;1.30;;;18.40;98.00;;;;;;5031466;28;20486;-68
2022/10/24 01:04:18;;;;;;;3.27;1.60;;;18.50;98.00;;;;;;5031781;28;20878;-68
2022/10/24 01:06:49;;;;;;;2.07;1.23;;;18.50;98.00;;;;;;5031016;28;20454;-68
2022/10/24 01:09:39;;;;;;;2.90;1.20;;;18.60;98.00;;;;;;5031381;28;20455;-69
2022/10/24 01:12:19;;;;;;;4.87;1.30;;;18.70;98.00;;;;;;5031404;28;20454;-68
2022/10/24 01:14:53;;;;;;;2.23;1.30;;;18.70;98.00;;;;;;5031196;28;20520;-68
2022/10/24 01:17:29;;;;;;;4.67;1.50;;;18.70;98.00;;;;;;5031270;28;20458;-68
2022/10/24 01:20:24;;;;;;;1.33;1.23;;;18.70;98.00;;;;;;5031179;28;20512;-68
2022/10/24 01:23:08;;;;;;;1.87;1.53;;;18.60;98.00;;;;;;5002247;28;20490;-68
2022/10/24 01:25:47;;;;;;;2.27;1.20;;;18.60;98.00;;;;;;5031355;28;20466;-68
2022/10/24 01:28:18;;;;;;;1.67;1.20;;;18.60;98.00;;;;;;5031139;28;20462;-68
2022/10/24 01:30:52;;;;;;;1.73;1.20;;;18.40;98.00;;;;;;5031197;28;20459;-68
2022/10/24 01:33:26;;;;;;;1.73;1.30;;;18.40;98.00;;;;;;5031114;28;20454;-68
2022/10/24 01:35:58;;;;;;;3.87;1.50;;;18.30;98.00;;;;;;5033121;28;20458;-69
2022/10/24 01:38:31;;;;;;;4.20;1.70;;;18.30;98.00;;;;;;5035148;28;20461;-68
2022/10/24 01:41:01;;;;;;;10.23;1.53;;;18.30;98.00;;;;;;5035195;28;20737;-68
2022/10/24 01:43:31;;;;;;;2.53;1.40;;;18.30;98.00;;;;;;5035192;28;20473;-68
2022/10/24 01:46:03;;;;;;;1.87;1.30;;;18.30;98.00;;;;;;5035342;28;20459;-68
2022/10/24 01:48:35;;;;;;;2.93;1.50;;;18.30;98.00;;;;;;5035044;28;20846;-68
2022/10/24 01:51:05;;;;;;;13.97;1.50;;;18.40;98.00;;;;;;5035204;28;20450;-68
2022/10/24 01:53:32;;;;;;;2.17;1.27;;;18.40;98.00;;;;;;5034929;28;20513;-68
2022/10/24 01:56:00;;;;;;;1.47;1.43;;;18.40;98.00;;;;;;5034979;28;20501;-68
2022/10/24 01:58:28;;;;;;;2.03;1.47;;;18.30;98.00;;;;;;5017716;28;20981;-68
2022/10/24 02:01:04;;;;;;;3.60;1.83;;;18.30;98.00;;;;;;5035245;28;20463;-68
2022/10/24 02:03:34;;;;;;;1.70;1.53;;;18.30;98.00;;;;;;5034936;28;20485;-68
2022/10/24 02:06:05;;;;;;;2.27;1.40;;;18.30;98.00;;;;;;5034899;28;20461;-68
2022/10/24 02:08:35;;;;;;;3.40;1.43;;;18.40;98.00;;;;;;5034926;28;20462;-68
2022/10/24 02:11:06;;;;;;;1.80;1.20;;;18.40;98.00;;;;;;5034765;28;20459;-68
2022/10/24 02:13:41;;;;;;;8.60;2.53;;;18.40;98.00;;;;;;5017427;28;20949;-68
2022/10/24 02:16:10;;;;;;;2.57;1.83;;;18.40;98.00;;;;;;5034784;28;20461;-67
2022/10/24 02:18:38;;;;;;;2.23;1.50;;;18.40;98.00;;;;;;5034536;28;20450;-69
2022/10/24 02:21:17;;;;;;;2.60;1.40;;;18.40;98.00;;;;;;5034415;28;20458;-68
2022/10/24 02:23:55;;;;;;;3.13;1.70;;;18.40;98.00;;;;;;5034477;28;20458;-68
2022/10/24 02:26:27;;;;;;;3.90;2.17;;;18.40;98.00;;;;;;5034287;28;20454;-68
2022/10/24 02:28:58;;;;;;;9.50;1.40;;;18.40;98.00;;;;;;5034226;28;20516;-68
2022/10/24 02:31:34;;;;;;;3.20;1.37;;;18.40;98.00;;;;;;5034315;28;20461;-68
2022/10/24 02:34:01;;;;;;;2.87;1.50;;;18.30;98.00;;;;;;5034311;28;20450;-68
2022/10/24 02:36:31;;;;;;;2.10;1.33;;;18.30;98.00;;;;;;5034087;28;20462;-68
2022/10/24 02:39:00;;;;;;;3.73;1.53;;;18.40;98.00;;;;;;5034019;28;20458;-68
2022/10/24 02:41:32;;;;;;;2.10;1.53;;;18.30;98.00;;;;;;5033899;28;20485;-68
2022/10/24 02:44:01;;;;;;;2.43;1.30;;;18.30;98.00;;;;;;5034057;28;20558;-68
2022/10/24 02:46:32;;;;;;;1.43;1.30;;;18.40;98.00;;;;;;5032647;28;20881;-68
2022/10/24 02:49:01;;;;;;;1.47;1.40;;;18.40;98.00;;;;;;5031813;28;20458;-68
2022/10/24 02:51:32;;;;;;;3.00;1.47;;;18.40;98.00;;;;;;5033844;28;20458;-68
2022/10/24 02:54:00;;;;;;;1.83;1.40;;;18.30;98.00;;;;;;5034249;28;20521;-68
2022/10/24 02:56:28;;;;;;;2.97;1.53;;;18.30;98.00;;;;;;5033886;28;20512;-68
2022/10/24 02:58:55;;;;;;;11.10;1.30;;;18.10;98.00;;;;;;5033919;28;20450;-68
2022/10/24 03:01:22;;;;;;;3.73;1.80;;;18.00;98.00;;;;;;5033705;28;20517;-68
2022/10/24 03:03:50;;;;;;;4.20;2.03;;;18.00;98.00;;;;;;5033799;28;20462;-68
2022/10/24 03:06:17;;;;;;;1.87;1.60;;;18.00;98.00;;;;;;5033751;28;20463;-68
2022/10/24 03:08:44;;;;;;;6.37;1.73;;;18.00;98.00;;;;;;5033525;28;20458;-68
2022/10/24 03:11:11;;;;;;;2.57;1.40;;;17.90;98.00;;;;;;5033710;28;20458;-68
2022/10/24 03:13:38;;;;;;;2.30;1.70;;;17.80;98.00;;;;;;5033348;28;20474;-68
2022/10/24 03:16:06;;;;;;;2.33;1.50;;;17.80;98.00;;;;;;5033446;28;20450;-68
2022/10/24 03:18:33;;;;;;;2.33;1.57;;;17.80;98.00;;;;;;5033253;28;20462;-68
2022/10/24 03:21:01;;;;;;;2.87;1.47;;;17.70;98.00;;;;;;5033204;28;20463;-68
2022/10/24 03:23:29;;;;;;;4.37;1.60;;;17.80;98.00;;;;;;5033154;28;20903;-68
2022/10/24 03:25:56;;;;;;;1.93;1.40;;;17.80;98.00;;;;;;5015945;28;20876;-68
2022/10/24 03:28:23;;;;;;;1.73;1.57;;;17.70;98.00;;;;;;5033094;28;20953;-68
2022/10/24 03:30:51;;;;;;;2.60;1.40;;;17.80;98.00;;;;;;5033150;28;20459;-68
2022/10/24 03:33:18;;;;;;;4.47;1.30;;;17.80;98.00;;;;;;5033046;28;20451;-68
2022/10/24 03:35:45;;;;;;;2.10;1.80;;;17.70;98.00;;;;;;5033199;28;20458;-68
2022/10/24 03:38:14;;;;;;;3.07;1.83;;;17.70;98.00;;;;;;5032961;28;20454;-68
2022/10/24 03:40:41;;;;;;;6.37;2.00;;;17.70;98.00;;;;;;5033172;28;20454;-68
2022/10/24 03:43:09;;;;;;;4.73;2.37;;;17.70;98.00;;;;;;5032800;28;20526;-68
2022/10/24 03:45:36;;;;;;;1.60;1.30;;;17.70;98.00;;;;;;5032923;28;20950;-70
2022/10/24 03:48:04;;;;;;;2.23;1.60;;;17.70;98.00;;;;;;5032877;28;20495;-67
2022/10/24 03:50:32;;;;;;;2.30;1.43;;;17.70;98.00;;;;;;5032742;28;20450;-68
2022/10/24 03:52:59;;;;;;;3.17;1.63;;;17.70;98.00;;;;;;5032729;28;20973;-68
2022/10/24 03:55:28;;;;;;;2.03;1.53;;;17.70;98.00;;;;;;5032963;28;20874;-68
2022/10/24 03:57:56;;;;;;;3.20;1.50;;;17.70;98.00;;;;;;5032458;28;20496;-68
2022/10/24 04:00:23;;;;;;;2.03;1.40;;;17.70;98.00;;;;;;5032897;28;20458;-68
2022/10/24 04:02:50;;;;;;;1.93;1.40;;;17.70;98.00;;;;;;5032584;28;20490;-67
2022/10/24 04:05:18;;;;;;;2.10;1.60;;;17.70;98.00;;;;;;5032630;28;20533;-68
2022/10/24 04:07:45;;;;;;;5.33;1.77;;;17.70;98.00;;;;;;5032345;28;20517;-68
2022/10/24 04:10:12;;;;;;;5.57;2.30;;;17.70;98.00;;;;;;5032754;28;20459;-68
2022/10/24 04:12:41;;;;;;;1.60;1.40;;;17.60;98.00;;;;;;5032368;28;20458;-68
2022/10/24 04:15:08;;;;;;;1.60;1.30;;;17.70;98.00;;;;;;5032239;28;20981;-68
2022/10/24 04:17:47;;;;;;;2.37;1.53;;;17.60;98.00;;;;;;5032193;28;20459;-69
2022/10/24 04:20:18;;;;;;;2.83;1.70;;;17.60;98.00;;;;;;5032252;28;20458;-68
2022/10/24 04:22:45;;;;;;;2.33;1.60;;;17.60;98.00;;;;;;5032057;28;21001;-69
2022/10/24 04:25:12;;;;;;;1.50;1.40;;;17.60;98.00;;;;;;5032059;28;20857;-68
2022/10/24 04:27:41;;;;;;;2.83;1.50;;;17.60;98.00;;;;;;5032108;28;20830;-68
2022/10/24 04:30:09;;;;;;;2.90;1.60;;;17.60;98.00;;;;;;5031948;28;20454;-68
2022/10/24 04:32:36;;;;;;;2.80;1.60;;;17.60;98.00;;;;;;5014574;28;20814;-68
2022/10/24 04:35:04;;;;;;;5.83;1.67;;;17.60;98.00;;;;;;5014398;28;20455;-68
2022/10/24 04:37:31;;;;;;;2.17;1.40;;;17.60;98.00;;;;;;5031870;28;20461;-68
2022/10/24 04:39:58;;;;;;;7.03;1.90;;;17.70;98.00;;;;;;5032009;28;20455;-68
2022/10/24 04:42:26;;;;;;;1.97;1.30;;;17.60;98.00;;;;;;5031661;28;20487;-68
2022/10/24 04:44:54;;;;;;;2.17;1.43;;;17.60;98.00;;;;;;5031705;28;20512;-68
2022/10/24 04:47:21;;;;;;;4.40;2.00;;;17.60;98.00;;;;;;5031558;28;20805;-68
2022/10/24 04:49:48;;;;;;;7.50;2.27;;;17.70;98.00;;;;;;5031724;28;20462;-68
2022/10/24 04:52:16;;;;;;;2.67;1.60;;;17.60;98.00;;;;;;5031622;28;20454;-68
2022/10/24 04:54:43;;;;;;;2.37;1.50;;;17.60;98.00;;;;;;5031568;28;20961;-68
2022/10/24 04:57:10;;;;;;;2.30;1.60;;;17.50;98.00;;;;;;5031746;28;20451;-68
2022/10/24 04:59:37;;;;;;;1.90;1.37;;;17.50;98.00;;;;;;5031851;28;20461;-68
2022/10/24 05:02:05;;;;;;;3.40;1.77;;;17.50;98.00;;;;;;5014177;28;21050;-68
2022/10/24 05:04:33;;;;;;;4.23;1.40;;;17.50;98.00;;;;;;5031576;28;20459;-69
2022/10/24 05:07:00;;;;;;;1.80;1.40;;;17.40;98.00;;;;;;5031522;28;20458;-68
2022/10/24 05:09:27;;;;;;;4.43;1.37;;;17.40;98.00;;;;;;5030857;28;20486;-67
2022/10/24 05:11:55;;;;;;;7.30;3.00;;;17.40;98.00;;;;;;5031329;28;21149;-68
2022/10/24 05:14:25;;;;;;;8.67;2.43;;;17.50;98.00;;;;;;5031200;28;20557;-68
2022/10/24 05:16:52;;;;;;;1.50;1.40;;;17.50;98.00;;;;;;5031624;28;20458;-68
2022/10/24 05:19:21;;;;;;;2.73;1.70;;;17.50;98.00;;;;;;5031193;28;20466;-68
2022/10/24 05:21:48;;;;;;;3.20;1.70;;;17.50;98.00;;;;;;5031384;28;20457;-68
2022/10/24 05:24:15;;;;;;;1.73;1.60;;;17.50;98.00;;;;;;5031139;28;20509;-68
2022/10/24 05:26:42;;;;;;;5.70;2.00;;;17.60;98.00;;;;;;5031175;28;20454;-68
2022/10/24 05:29:09;;;;;;;2.80;1.60;;;17.50;98.00;;;;;;5031082;28;20458;-68
2022/10/24 05:31:36;;;;;;;1.77;1.50;;;17.60;98.00;;;;;;5031200;28;20455;-68
2022/10/24 05:34:03;;;;;;;4.23;1.50;;;17.60;98.00;;;;;;5031032;28;20463;-67
2022/10/24 05:36:32;;;;;;;3.40;1.50;;;17.60;98.00;;;;;;5031093;28;20504;-68
2022/10/24 05:38:59;;;;;;;4.10;1.70;;;17.60;98.00;;;;;;5031308;28;20811;-67
2022/10/24 05:41:26;;;;;;;5.13;1.80;;;17.60;98.00;;;;;;5013559;28;20451;-68
2022/10/24 05:43:53;;;;;;;5.90;1.50;;;17.60;98.00;;;;;;5030895;28;20897;-68
2022/10/24 05:46:20;;;;;;;3.50;1.60;;;17.60;98.00;;;;;;5030269;28;20466;-68
2022/10/24 05:48:48;;;;;;;2.60;1.60;;;17.70;98.00;;;;;;5031166;28;20458;-68
2022/10/24 05:51:15;;;;;;;2.27;1.50;;;17.70;98.00;;;;;;5030861;28;20454;-68
2022/10/24 05:53:44;;;;;;;13.93;4.57;;;17.70;98.00;;;;;;5031004;28;20455;-68
2022/10/24 05:56:11;;;;;;;6.57;2.97;;;17.70;98.00;;;;;;5031006;28;20462;-68
2022/10/24 05:58:38;;;;;;;2.50;1.60;;;17.80;98.00;;;;;;5031085;28;20462;-68
2022/10/24 06:01:05;;;;;;;4.00;1.77;;;17.70;98.00;;;;;;5031398;28;20802;-68
2022/10/24 06:03:32;;;;;;;1.40;1.40;;;17.80;98.00;;;;;;5030797;28;20483;-68
2022/10/24 06:06:05;;;;;;;2.00;1.53;;;17.80;98.00;;;;;;5031168;28;20976;-68
2022/10/24 06:08:34;;;;;;;1.77;1.30;;;17.80;98.00;;;;;;5013363;28;21035;-68
2022/10/24 06:11:02;;;;;;;1.73;1.50;;;17.90;98.00;;;;;;5030935;28;20454;-68
2022/10/24 06:13:31;;;;;;;4.70;1.90;;;17.90;98.00;;;;;;5030784;28;20455;-68
2022/10/24 06:15:58;;;;;;;2.60;1.50;;;17.80;98.00;;;;;;5030837;28;20457;-68
2022/10/24 06:18:26;;;;;;;4.73;2.80;;;17.70;98.00;;;;;;5030703;28;20509;-68
2022/10/24 06:20:54;;;;;;;10.00;1.73;;;17.50;98.00;;;;;;5031178;28;20454;-68
2022/10/24 06:23:23;;;;;;;2.03;1.40;;;17.40;98.00;;;;;;5016958;28;20490;-68
2022/10/24 06:25:50;;;;;;;10.07;1.80;;;17.40;98.00;;;;;;5034292;28;20454;-68
2022/10/24 06:28:18;;;;;;;1.60;1.30;;;17.40;98.00;;;;;;5034119;28;20461;-68
2022/10/24 06:30:47;;;;;;;1.93;1.40;;;17.50;98.00;;;;;;5034253;28;20473;-68
2022/10/24 06:33:14;;;;;;;1.93;1.40;;;17.50;98.00;;;;;;5034255;28;20886;-68
2022/10/24 06:35:41;;;;;;;1.40;1.33;;;17.60;98.00;;;;;;5034095;28;20462;-68
2022/10/24 06:38:08;;;;;;;2.53;1.87;;;17.60;98.00;;;;;;5034106;28;20455;-68
2022/10/24 06:40:38;;;;;;;1.40;1.30;;;17.70;98.00;;;;;;5034104;28;20485;-68
2022/10/24 06:43:06;;;;;;;2.60;1.57;;;17.70;98.00;;;;;;5033861;28;20489;-68
2022/10/24 06:45:34;;;;;;;3.00;1.60;;;17.70;98.00;;;;;;5016436;28;20458;-68
2022/10/24 06:48:02;;;;;;;1.60;1.50;;;17.70;98.00;;;;;;5033852;28;20485;-68
2022/10/24 06:50:29;;;;;;;1.40;1.30;;;17.60;98.00;;;;;;5033768;28;20442;-68
2022/10/24 06:52:56;;;;;;;2.23;1.40;;;17.50;98.00;;;;;;5034113;28;20466;-68
2022/10/24 06:55:23;;;;;;;4.43;1.97;;;17.50;98.00;;;;;;5034047;28;20463;-68
2022/10/24 06:57:50;;;;;;;1.70;1.50;;;17.40;98.00;;;;;;5033998;28;20968;-68
2022/10/24 07:00:17;;;;;;;2.63;1.60;;;17.40;98.00;;;;;;5016228;28;20465;-68
2022/10/24 07:02:46;;;;;;;1.63;1.30;;;17.30;98.00;;;;;;5033673;28;20482;-68
2022/10/24 07:05:13;;;;;;;2.47;1.37;;;17.30;98.00;;;;;;5032991;28;20980;-67
2022/10/24 07:07:41;;;;;;;2.27;1.50;;;17.20;98.00;;;;;;5033517;28;20458;-68
2022/10/24 07:10:11;;;;;;;4.23;1.43;;;17.10;98.00;;;;;;5033571;28;20490;-68
2022/10/24 07:12:38;;;;;;;2.93;1.50;;;17.00;98.00;;;;;;5033369;28;20463;-66
2022/10/24 07:15:07;;;;;;;1.80;1.53;;;16.90;98.00;;;;;;5033423;28;21092;-66
2022/10/24 07:17:39;;;;;;;1.70;1.30;;;16.80;98.00;;;;;;5033327;28;20768;-67
2022/10/24 07:20:09;;;;;;;2.23;1.70;;;16.80;98.00;;;;;;5033404;28;20462;-65
2022/10/24 07:22:36;;;;;;;1.80;1.40;;;16.80;98.00;;;;;;5033500;28;20459;-67
2022/10/24 07:25:04;;;;;;;2.60;1.73;;;16.80;98.00;;;;;;5033177;28;20525;-66
2022/10/24 07:27:32;;;;;;;2.33;1.57;;;16.80;98.00;;;;;;5033089;28;20469;-66
2022/10/24 07:29:59;;;;;;;1.90;1.50;;;16.90;98.00;;;;;;5033137;28;20466;-66
2022/10/24 07:32:27;;;;;;;11.50;1.87;;;16.80;98.00;;;;;;5032553;28;20520;-67
2022/10/24 07:34:54;;;;;;;2.40;1.93;;;17.00;98.00;;;;;;5032953;28;20806;-66
2022/10/24 07:37:22;;;;;;;2.97;1.70;;;16.90;98.00;;;;;;5032929;28;20458;-67
2022/10/24 07:39:49;;;;;;;3.53;1.87;;;16.70;98.00;;;;;;5015420;28;20454;-65
2022/10/24 07:42:17;;;;;;;2.37;1.90;;;16.60;98.00;;;;;;5032923;28;21013;-65
2022/10/24 07:44:44;;;;;;;1.80;1.60;;;16.60;98.00;;;;;;5033212;28;20512;-65
2022/10/24 07:47:11;;;;;;;1.80;1.30;;;16.50;98.00;;;;;;5032741;28;20712;-66
2022/10/24 07:49:39;;;;;;;2.77;1.80;;;16.40;98.00;;;;;;5032992;28;20864;-67
2022/10/24 07:52:06;;;;;;;5.07;1.97;;;16.40;98.00;;;;;;5032853;28;20481;-65
2022/10/24 07:54:35;;;;;;;1.80;1.50;;;16.40;98.00;;;;;;5032871;28;20486;-66
2022/10/24 07:57:02;;;;;;;2.70;1.80;;;16.40;98.00;;;;;;5032684;28;20455;-66
2022/10/24 07:59:29;;;;;;;5.53;2.00;;;16.50;98.00;;;;;;5033170;28;20459;-66
2022/10/24 08:01:56;;;;;;;2.53;1.83;;;16.50;98.00;;;;;;5032336;28;20458;-66
2022/10/24 08:04:23;;;;;;;3.20;1.63;;;16.50;98.00;;;;;;5033016;28;20588;-67
2022/10/24 08:06:50;;;;;;;2.70;1.60;;;16.50;98.00;;;;;;5033323;28;20462;-66
2022/10/24 08:09:17;;;;;;;1.70;1.30;;;16.50;98.00;;;;;;5032982;28;20964;-65
2022/10/24 08:11:46;;;;;;;3.17;1.60;;;16.60;98.00;;;;;;5033008;28;20806;-66
2022/10/24 08:14:13;;;;;;;5.20;2.07;;;16.60;98.00;;;;;;5032913;28;20454;-66
2022/10/24 08:16:42;;;;;;;1.73;1.40;;;16.70;98.00;;;;;;5032996;28;21072;-68
2022/10/24 08:19:11;;;;;;;1.70;1.47;;;16.70;98.00;;;;;;5032907;28;20835;-65
2022/10/24 08:21:38;;;;;;;2.70;1.77;;;16.70;98.00;;;;;;5032973;28;20540;-68
2022/10/24 08:24:06;;;;;;;1.80;1.53;;;16.80;98.00;;;;;;5032837;28;20560;-66
2022/10/24 08:26:33;;;;;;;2.30;1.33;;;16.70;98.00;;;;;;5032777;28;20481;-65
2022/10/24 08:29:03;;;;;;;4.23;1.60;;;16.70;98.00;;;;;;5032847;28;20521;-66
2022/10/24 08:31:31;;;;;;;2.03;1.33;;;16.60;98.00;;;;;;5032782;28;20546;-66
2022/10/24 08:33:58;;;;;;;5.13;1.70;;;16.60;98.00;;;;;;5032677;28;20972;-66
2022/10/24 08:36:27;;;;;;;1.40;1.20;;;16.60;98.00;;;;;;5032714;28;20455;-66
2022/10/24 08:38:55;;;;;;;1.20;1.10;;;16.50;98.00;;;;;;5032712;28;20455;-68
2022/10/24 08:41:30;;;;;;;6.33;2.03;;;16.50;98.00;;;;;;5032545;28;20815;-66
2022/10/24 08:44:02;;;;;;;2.90;1.83;;;16.40;98.00;;;;;;5032620;28;20489;-66
2022/10/24 08:46:47;;;;;;;3.50;2.00;;;16.40;98.00;;;;;;5032415;28;21013;-66
2022/10/24 08:49:22;;;;;;;14.73;1.63;;;16.30;98.00;;;;;;5032550;28;20465;-66
2022/10/24 08:51:53;;;;;;;2.63;1.40;;;16.40;98.00;;;;;;5032787;28;20454;-66
2022/10/24 08:54:23;;;;;;;1.77;1.37;;;16.40;98.00;;;;;;5032546;28;20459;-66
2022/10/24 08:56:54;;;;;;;1.60;1.33;;;16.50;98.00;;;;;;5032558;28;20534;-67
2022/10/24 08:59:21;;;;;;;1.90;1.47;;;16.50;98.00;;;;;;5032483;28;20451;-66
2022/10/24 09:01:55;;;;;;;1.67;1.50;;;16.40;98.00;;;;;;5032106;28;20490;-66
2022/10/24 09:04:26;;;;;;;1.87;1.50;;;16.40;98.00;;;;;;5032097;28;20492;-67
2022/10/24 09:06:55;;;;;;;3.73;1.70;;;16.40;98.00;;;;;;5032044;28;20886;-65
2022/10/24 09:09:28;;;;;;;1.60;1.40;;;16.30;98.00;;;;;;5031895;28;20822;-64
2022/10/24 09:11:59;;;;;;;1.70;1.50;;;16.30;98.00;;;;;;5032012;28;20455;-66
2022/10/24 09:14:29;;;;;;;1.70;1.30;;;16.40;98.00;;;;;;5031933;28;20454;-65
2022/10/24 09:17:01;;;;;;;2.63;1.40;;;16.50;98.00;;;;;;5032013;28;20464;-65
2022/10/24 09:19:30;;;;;;;1.93;1.40;;;16.60;98.00;;;;;;5032069;28;20459;-65
2022/10/24 09:22:00;;;;;;;1.60;1.40;;;16.60;98.00;;;;;;5031905;28;20466;-65
2022/10/24 09:24:39;;;;;;;3.30;2.13;;;16.60;98.00;;;;;;5031917;28;20486;-64
2022/10/24 09:27:12;;;;;;;1.40;1.30;;;16.60;98.00;;;;;;5031958;28;20462;-66
2022/10/24 09:29:39;;;;;;;4.00;1.33;;;16.60;98.00;;;;;;5014821;28;20459;-65
2022/10/24 09:32:16;;;;;;;1.90;1.33;;;16.60;98.00;;;;;;5031977;28;20462;-66
2022/10/24 09:34:44;;;;;;;1.60;1.60;;;16.60;98.00;;;;;;5032087;28;20493;-66
2022/10/24 09:37:30;;;;;;;2.50;1.40;;;16.60;98.00;;;;;;5031875;28;20974;-65
2022/10/24 09:40:07;;;;;;;2.43;1.57;;;16.70;98.00;;;;;;5031918;28;20447;-65
2022/10/24 09:42:36;;;;;;;2.50;1.50;;;16.70;98.00;;;;;;5032023;28;20986;-65
2022/10/24 09:45:29;;;;;;;4.53;1.40;;;16.80;98.00;;;;;;5031856;28;20482;-65
2022/10/24 09:48:00;;;;;;;2.40;1.50;;;16.80;98.00;;;;;;5031743;28;20493;-65
2022/10/24 09:50:28;;;;;;;2.10;1.50;;;16.80;98.00;;;;;;5031890;28;20455;-65
2022/10/24 09:52:59;;;;;;;1.73;1.40;;;16.80;98.00;;;;;;5031839;28;20469;-65
2022/10/24 09:55:30;;;;;;;1.50;1.40;;;16.80;98.00;;;;;;5032079;28;20492;-66
2022/10/24 09:58:02;;;;;;;7.23;1.90;;;16.80;98.00;;;;;;5035553;28;20517;-65
2022/10/24 10:00:32;;;;;;;2.13;1.63;;;16.80;98.00;;;;;;5035642;28;20465;-65
2022/10/24 10:03:04;;;;;;;2.47;1.50;;;16.80;98.00;;;;;;5035530;28;20826;-64
2022/10/24 10:05:44;;;;;;;2.70;1.60;;;16.80;98.00;;;;;;5035526;28;20482;-66
2022/10/24 10:08:21;;;;;;;4.73;1.50;;;16.90;98.00;;;;;;5035236;28;20941;-66
2022/10/24 10:11:07;;;;;;;3.97;1.53;;;17.00;98.00;;;;;;5035387;28;20501;-68
2022/10/24 10:13:44;;;;;;;10.10;1.90;;;17.00;98.00;;;;;;5017049;28;20516;-68
2022/10/24 10:16:22;;;;;;;1.80;1.40;;;17.00;98.00;;;;;;5034711;28;20471;-66
2022/10/24 10:18:51;;;;;;;5.37;2.53;;;17.00;98.00;;;;;;5034484;28;20476;-67
2022/10/24 10:21:20;;;;;;;1.40;1.40;;;17.00;98.00;;;;;;5034502;28;20454;-67
2022/10/24 10:23:48;;;;;;;3.87;1.40;;;17.10;98.00;;;;;;5016527;28;20505;-66
2022/10/24 10:26:19;;;;;;;1.73;1.50;;;17.10;98.00;;;;;;5034261;28;20466;-66
2022/10/24 10:28:52;;;;;;;3.50;1.30;;;17.20;98.00;;;;;;5034425;28;20826;-68
2022/10/24 10:31:22;;;;;;;1.53;1.30;;;17.20;98.00;;;;;;5034172;28;20517;-66
2022/10/24 10:34:11;;;;;;;1.70;1.50;;;17.30;98.00;;;;;;5017444;28;20451;-67
2022/10/24 10:36:47;;;;;;;2.03;1.30;;;17.40;98.00;;;;;;5034286;28;20469;-66
2022/10/24 10:39:32;;;;;;;2.27;1.50;;;17.40;98.00;;;;;;5016397;28;20983;-66
2022/10/24 10:42:08;;;;;;;3.40;1.63;;;17.40;98.00;;;;;;5034129;28;20466;-66
2022/10/24 10:44:56;;;;;;;9.00;1.53;;;17.50;98.00;;;;;;5033940;28;20486;-66
2022/10/24 10:47:34;;;;;;;2.77;1.77;;;17.50;98.00;;;;;;5033817;28;20469;-66
2022/10/24 10:50:15;;;;;;;2.90;1.40;;;17.50;98.00;;;;;;5034212;28;20466;-66
2022/10/24 10:52:48;;;;;;;3.67;1.83;;;17.50;98.00;;;;;;5033881;28;20453;-67
2022/10/24 10:55:31;;;;;;;3.50;1.83;;;17.60;98.00;;;;;;5034071;28;20886;-66
2022/10/24 10:58:08;;;;;;;5.77;1.40;;;17.60;98.00;;;;;;5034244;28;20517;-68
2022/10/24 11:00:43;;;;;;;1.70;1.40;;;17.70;98.00;;;;;;5033872;28;20466;-66
2022/10/24 11:03:22;;;;;;;2.10;1.63;;;17.70;98.00;;;;;;5033718;28;20503;-67
2022/10/24 11:05:59;;;;;;;2.00;1.60;;;17.70;98.00;;;;;;5033540;28;20482;-66
2022/10/24 11:08:45;;;;;;;2.73;1.57;;;17.80;98.00;;;;;;5032475;28;20471;-67
2022/10/24 11:11:17;;;;;;;3.97;1.50;;;17.80;98.00;;;;;;5033646;28;20875;-67
2022/10/24 11:13:51;;;;;;;4.47;1.67;;;17.80;98.00;;;;;;5033524;28;20571;-67
2022/10/24 11:16:25;;;;;;;1.20;1.20;;;17.80;98.00;;;;;;5033401;28;20954;-68
2022/10/24 11:18:54;;;;;;;2.70;1.70;;;17.90;98.00;;;;;;5033394;28;20466;-66
2022/10/24 11:21:26;;;;;;;2.07;1.50;;;17.90;98.00;;;;;;5033096;28;20455;-66
2022/10/24 11:23:56;;;;;;;1.50;1.20;;;17.90;98.00;;;;;;5033370;28;20525;-67
2022/10/24 11:26:28;;;;;;;1.53;1.27;;;17.90;98.00;;;;;;5033206;28;20459;-67
2022/10/24 11:29:03;;;;;;;1.60;1.50;;;17.90;98.00;;;;;;5033465;28;20454;-67
2022/10/24 11:31:35;;;;;;;1.83;1.33;;;17.90;98.00;;;;;;5015752;28;20500;-66
2022/10/24 11:34:12;;;;;;;1.47;1.40;;;17.80;98.00;;;;;;5033514;28;20645;-67
2022/10/24 11:36:45;;;;;;;1.67;1.50;;;17.90;98.00;;;;;;5033257;28;20505;-66
2022/10/24 11:39:18;;;;;;;1.80;1.47;;;17.90;98.00;;;;;;5033032;28;20888;-66
2022/10/24 11:41:52;;;;;;;1.47;1.47;;;18.00;98.00;;;;;;5033062;28;20450;-66
2022/10/24 11:44:41;;;;;;;3.60;1.40;;;18.00;98.00;;;;;;5032904;28;20486;-67
2022/10/24 11:47:41;;;;;;;2.33;1.53;;;18.00;98.00;;;;;;5017157;28;20537;-66
2022/10/24 11:50:17;;;;;;;1.93;1.37;;;18.10;98.00;;;;;;5033652;28;20466;-67
2022/10/24 11:52:51;;;;;;;3.73;1.67;;;18.10;98.00;;;;;;5033609;28;20501;-66
2022/10/24 11:55:21;;;;;;;3.07;1.70;;;18.10;98.00;;;;;;5033977;28;20937;-67
2022/10/24 11:57:52;;;;;;;7.43;1.50;;;18.00;98.00;;;;;;5033581;28;20454;-67
2022/10/24 12:00:23;;;;;;;1.60;1.30;;;18.10;98.00;;;;;;5033103;28;20462;-66
2022/10/24 12:03:27;;;;;;;1.90;1.20;;;18.10;98.00;;;;;;5032821;28;20534;-62
2022/10/24 12:06:13;;;;;;;1.57;1.23;;;18.10;98.00;;;;;;5032607;28;20482;-63
2022/10/24 12:09:13;;;;;;;3.13;1.60;;;18.30;98.00;;;;;;5032574;28;20458;-64
2022/10/24 12:11:55;;;;;;;1.47;1.40;;;18.40;98.00;;;;;;5010868;28;21039;-62
2022/10/24 12:14:52;;;;;;;1.67;1.40;;;18.50;98.00;;;;;;5032500;28;20461;-63
2022/10/24 12:17:41;;;;;;;2.00;1.40;;;18.60;98.00;;;;;;5032370;28;20466;-62
2022/10/24 12:20:19;;;;;;;9.63;1.60;;;18.70;98.00;;;;;;5032063;28;20486;-62
2022/10/24 12:22:48;;;;;;;4.60;1.57;;;18.90;98.00;;;;;;5031793;28;20524;-63
2022/10/24 12:25:26;;;;;;;1.63;1.27;;;19.00;98.00;;;;;;5032103;28;20490;-63
2022/10/24 12:27:57;;;;;;;2.27;1.50;;;19.10;98.00;;;;;;5014668;28;20466;-66
2022/10/24 12:30:26;;;;;;;1.87;1.23;;;19.00;98.00;;;;;;5032086;28;20454;-66
2022/10/24 12:32:57;;;;;;;3.30;1.53;;;19.00;98.00;;;;;;5032017;28;20450;-66
2022/10/24 12:35:45;;;;;;;7.53;1.83;;;18.90;98.00;;;;;;5032133;28;20463;-66
2022/10/24 12:38:32;;;;;;;2.33;1.20;;;18.80;98.00;;;;;;5032057;28;20454;-66
2022/10/24 12:41:05;;;;;;;1.33;1.20;;;18.70;98.00;;;;;;5030705;28;20469;-66
2022/10/24 12:43:36;;;;;;;1.67;1.40;;;18.50;98.00;;;;;;5032125;28;20451;-66
2022/10/24 12:46:37;;;;;;;1.73;1.40;;;18.60;98.00;;;;;;5031873;28;20489;-66
2022/10/24 12:49:27;;;;;;;3.83;1.77;;;18.60;98.00;;;;;;5031827;28;20508;-65
2022/10/24 12:51:54;;;;;;;1.97;1.43;;;18.40;98.00;;;;;;5032003;28;20636;-66
2022/10/24 12:54:39;;;;;;;1.60;1.30;;;18.40;98.00;;;;;;5031751;28;20454;-66
2022/10/24 12:57:25;;;;;;;3.60;1.80;;;18.50;98.00;;;;;;5031781;28;20824;-66
2022/10/24 12:59:56;;;;;;;3.33;1.40;;;18.60;98.00;;;;;;5031786;28;20467;-65
2022/10/24 13:02:51;;;;;;;3.23;1.30;;;18.50;98.00;;;;;;5031953;28;20471;-66
2022/10/24 13:05:47;;;;;;;1.60;1.20;;;18.60;98.00;;;;;;5031794;28;20833;-66